sensor_id;sensor_type;location;lat;lon;timestamp;temperature;humidity
33067;DHT22;19428;49.024;8.366;2023-02-13T00:01:21;4.30;99.90
33067;DHT22;19428;49.024;8.366;2023-02-13T00:03:47;4.20;99.90
33067;DHT22;19428;49.024;8.366;2023-02-13T00:06:13;4.20;99.90
33067;DHT22;19428;49.024;8.366;2023-02-13T00:08:38;4.10;99.90
33067;DHT22;19428;49.024;8.366;2023-02-13T00:11:04;4.10;99.90
33067;DHT22;19428;49.024;8.366;2023-02-13T00:13:30;4.10;99.90
33067;DHT22;19428;49.024;8.366;2023-02-13T00:16:00;4.10;99.90
33067;DHT22;19428;49.024;8.366;2023-02-13T00:18:27;4.00;99.90
33067;DHT22;19428;49.024;8.366;2023-02-13T00:21:00;4.00;99.90
33067;DHT22;19428;49.024;8.366;2023-02-13T00:23:28;4.00;99.90
33067;DHT22;19428;49.024;8.366;2023-02-13T00:25:54;4.00;99.90
33067;DHT22;19428;49.024;8.366;2023-02-13T00:28:20;4.00;99.90
33067;DHT22;19428;49.024;8.366;2023-02-13T00:30:45;4.00;99.90
33067;DHT22;19428;49.024;8.366;2023-02-13T00:33:11;3.90;99.90
33067;DHT22;19428;49.024;8.366;2023-02-13T00:35:36;4.00;99.90
33067;DHT22;19428;49.024;8.366;2023-02-13T00:38:02;4.00;99.90
33067;DHT22;19428;49.024;8.366;2023-02-13T00:40:27;4.00;99.90
33067;DHT22;19428;49.024;8.366;2023-02-13T00:42:53;3.90;99.90
33067;DHT22;19428;49.024;8.366;2023-02-13T00:45:19;3.90;99.90
33067;DHT22;19428;49.024;8.366;2023-02-13T00:47:44;3.80;99.90
33067;DHT22;19428;49.024;8.366;2023-02-13T00:50:10;3.80;99.90
33067;DHT22;19428;49.024;8.366;2023-02-13T00:52:35;3.80;99.90
33067;DHT22;19428;49.024;8.366;2023-02-13T00:55:01;3.80;99.90
33067;DHT22;19428;49.024;8.366;2023-02-13T00:57:26;3.80;99.90
33067;DHT22;19428;49.024;8.366;2023-02-13T00:59:52;3.70;99.90
33067;DHT22;19428;49.024;8.366;2023-02-13T01:02:17;3.70;99.90
33067;DHT22;19428;49.024;8.366;2023-02-13T01:04:43;3.70;99.90
33067;DHT22;19428;49.024;8.366;2023-02-13T01:07:08;3.70;99.90
33067;DHT22;19428;49.024;8.366;2023-02-13T01:09:34;3.60;99.90
33067;DHT22;19428;49.024;8.366;2023-02-13T01:12:00;3.60;99.90
33067;DHT22;19428;49.024;8.366;2023-02-13T01:14:25;3.60;99.90
33067;DHT22;19428;49.024;8.366;2023-02-13T01:17:06;3.60;99.90
33067;DHT22;19428;49.024;8.366;2023-02-13T01:19:31;3.60;99.90
33067;DHT22;19428;49.024;8.366;2023-02-13T01:21:57;3.60;99.90
33067;DHT22;19428;49.024;8.366;2023-02-13T01:24:23;3.50;99.90
33067;DHT22;19428;49.024;8.366;2023-02-13T01:26:48;3.50;99.90
33067;DHT22;19428;49.024;8.366;2023-02-13T01:29:14;3.50;99.90
33067;DHT22;19428;49.024;8.366;2023-02-13T01:31:39;3.50;99.90
33067;DHT22;19428;49.024;8.366;2023-02-13T01:34:05;3.50;99.90
33067;DHT22;19428;49.024;8.366;2023-02-13T01:36:30;3.50;99.90
33067;DHT22;19428;49.024;8.366;2023-02-13T01:38:57;3.30;99.90
33067;DHT22;19428;49.024;8.366;2023-02-13T01:41:24;3.40;99.90
33067;DHT22;19428;49.024;8.366;2023-02-13T01:43:51;3.40;99.90
33067;DHT22;19428;49.024;8.366;2023-02-13T01:46:36;3.30;99.90
33067;DHT22;19428;49.024;8.366;2023-02-13T01:49:17;3.30;99.90
33067;DHT22;19428;49.024;8.366;2023-02-13T01:51:44;3.30;99.90
33067;DHT22;19428;49.024;8.366;2023-02-13T01:54:21;3.30;99.90
33067;DHT22;19428;49.024;8.366;2023-02-13T01:56:50;3.30;99.90
33067;DHT22;19428;49.024;8.366;2023-02-13T01:59:25;3.20;99.90
33067;DHT22;19428;49.024;8.366;2023-02-13T02:01:53;3.20;99.90
33067;DHT22;19428;49.024;8.366;2023-02-13T02:04:22;3.20;99.90
33067;DHT22;19428;49.024;8.366;2023-02-13T02:06:54;3.10;99.90
33067;DHT22;19428;49.024;8.366;2023-02-13T02:09:24;3.00;99.90
33067;DHT22;19428;49.024;8.366;2023-02-13T02:14:26;3.00;99.90
33067;DHT22;19428;49.024;8.366;2023-02-13T02:16:52;3.10;99.90
33067;DHT22;19428;49.024;8.366;2023-02-13T02:19:25;3.00;99.90
33067;DHT22;19428;49.024;8.366;2023-02-13T02:27:17;2.90;99.90
33067;DHT22;19428;49.024;8.366;2023-02-13T02:32:40;2.80;99.90
33067;DHT22;19428;49.024;8.366;2023-02-13T02:35:22;2.80;99.90
33067;DHT22;19428;49.024;8.366;2023-02-13T02:40:59;2.80;99.90
33067;DHT22;19428;49.024;8.366;2023-02-13T02:43:45;2.70;99.90
33067;DHT22;19428;49.024;8.366;2023-02-13T02:46:23;2.70;99.90
33067;DHT22;19428;49.024;8.366;2023-02-13T02:49:09;2.70;99.90
33067;DHT22;19428;49.024;8.366;2023-02-13T02:52:17;2.60;99.90
33067;DHT22;19428;49.024;8.366;2023-02-13T02:58:07;2.60;99.90
33067;DHT22;19428;49.024;8.366;2023-02-13T03:00:56;2.60;99.90
33067;DHT22;19428;49.024;8.366;2023-02-13T03:03:41;2.60;99.90
33067;DHT22;19428;49.024;8.366;2023-02-13T03:06:39;2.50;99.90
33067;DHT22;19428;49.024;8.366;2023-02-13T03:09:13;2.50;99.90
33067;DHT22;19428;49.024;8.366;2023-02-13T03:11:58;2.50;99.90
33067;DHT22;19428;49.024;8.366;2023-02-13T03:14:43;2.50;99.90
33067;DHT22;19428;49.024;8.366;2023-02-13T03:17:12;2.50;99.90
33067;DHT22;19428;49.024;8.366;2023-02-13T03:20:19;2.50;99.90
33067;DHT22;19428;49.024;8.366;2023-02-13T03:25:52;2.50;99.90
33067;DHT22;19428;49.024;8.366;2023-02-13T03:28:22;2.50;99.90
33067;DHT22;19428;49.024;8.366;2023-02-13T03:33:57;2.50;99.90
33067;DHT22;19428;49.024;8.366;2023-02-13T03:36:33;2.50;99.90
33067;DHT22;19428;49.024;8.366;2023-02-13T03:39:43;2.50;99.90
33067;DHT22;19428;49.024;8.366;2023-02-13T03:43:03;2.50;99.90
33067;DHT22;19428;49.024;8.366;2023-02-13T03:45:29;2.50;99.90
33067;DHT22;19428;49.024;8.366;2023-02-13T03:48:50;2.40;99.90
33067;DHT22;19428;49.024;8.366;2023-02-13T03:54:21;2.40;99.90
33067;DHT22;19428;49.024;8.366;2023-02-13T03:57:08;2.40;99.90
33067;DHT22;19428;49.024;8.366;2023-02-13T03:59:56;2.30;99.90
33067;DHT22;19428;49.024;8.366;2023-02-13T04:02:24;2.30;99.90
33067;DHT22;19428;49.024;8.366;2023-02-13T04:05:08;2.30;99.90
33067;DHT22;19428;49.024;8.366;2023-02-13T04:07:35;2.30;99.90
33067;DHT22;19428;49.024;8.366;2023-02-13T04:10:13;2.20;99.90
33067;DHT22;19428;49.024;8.366;2023-02-13T04:20:40;2.30;99.90
33067;DHT22;19428;49.024;8.366;2023-02-13T04:23:07;2.20;99.90
33067;DHT22;19428;49.024;8.366;2023-02-13T04:25:35;2.20;99.90
33067;DHT22;19428;49.024;8.366;2023-02-13T04:28:01;2.20;99.90
33067;DHT22;19428;49.024;8.366;2023-02-13T04:30:27;2.20;99.90
33067;DHT22;19428;49.024;8.366;2023-02-13T04:32:53;2.20;99.90
33067;DHT22;19428;49.024;8.366;2023-02-13T04:35:18;2.20;99.90
33067;DHT22;19428;49.024;8.366;2023-02-13T04:37:44;2.20;99.90
33067;DHT22;19428;49.024;8.366;2023-02-13T04:40:10;2.10;99.90
33067;DHT22;19428;49.024;8.366;2023-02-13T04:42:35;2.20;99.90
33067;DHT22;19428;49.024;8.366;2023-02-13T04:45:01;2.20;99.90
33067;DHT22;19428;49.024;8.366;2023-02-13T04:47:27;2.10;99.90
33067;DHT22;19428;49.024;8.366;2023-02-13T04:49:52;2.10;99.90
33067;DHT22;19428;49.024;8.366;2023-02-13T04:52:18;2.00;99.90
33067;DHT22;19428;49.024;8.366;2023-02-13T04:54:43;2.10;99.90
33067;DHT22;19428;49.024;8.366;2023-02-13T04:57:09;2.10;99.90
33067;DHT22;19428;49.024;8.366;2023-02-13T04:59:34;2.10;99.90
33067;DHT22;19428;49.024;8.366;2023-02-13T05:02:00;2.10;99.90
33067;DHT22;19428;49.024;8.366;2023-02-13T05:04:25;2.00;99.90
33067;DHT22;19428;49.024;8.366;2023-02-13T05:06:51;2.00;99.90
33067;DHT22;19428;49.024;8.366;2023-02-13T05:09:17;1.90;99.90
33067;DHT22;19428;49.024;8.366;2023-02-13T05:11:42;1.90;99.90
33067;DHT22;19428;49.024;8.366;2023-02-13T05:14:09;2.00;99.90
33067;DHT22;19428;49.024;8.366;2023-02-13T05:16:35;1.90;99.90
33067;DHT22;19428;49.024;8.366;2023-02-13T05:19:01;1.90;99.90
33067;DHT22;19428;49.024;8.366;2023-02-13T05:21:26;1.90;99.90
33067;DHT22;19428;49.024;8.366;2023-02-13T05:24:10;1.80;99.90
33067;DHT22;19428;49.024;8.366;2023-02-13T05:26:36;1.90;99.90
33067;DHT22;19428;49.024;8.366;2023-02-13T05:29:01;1.80;99.90
33067;DHT22;19428;49.024;8.366;2023-02-13T05:31:56;1.80;99.90
33067;DHT22;19428;49.024;8.366;2023-02-13T05:34:23;1.80;99.90
33067;DHT22;19428;49.024;8.366;2023-02-13T05:36:49;1.80;99.90
33067;DHT22;19428;49.024;8.366;2023-02-13T05:39:15;1.90;99.90
33067;DHT22;19428;49.024;8.366;2023-02-13T05:41:41;1.80;99.90
33067;DHT22;19428;49.024;8.366;2023-02-13T05:44:07;1.80;99.90
33067;DHT22;19428;49.024;8.366;2023-02-13T05:46:33;1.80;99.90
33067;DHT22;19428;49.024;8.366;2023-02-13T05:48:59;1.80;99.90
33067;DHT22;19428;49.024;8.366;2023-02-13T05:51:25;1.70;99.90
33067;DHT22;19428;49.024;8.366;2023-02-13T05:53:50;1.70;99.90
33067;DHT22;19428;49.024;8.366;2023-02-13T05:56:16;1.70;99.90
33067;DHT22;19428;49.024;8.366;2023-02-13T05:58:41;1.60;99.90
33067;DHT22;19428;49.024;8.366;2023-02-13T06:01:07;1.50;99.90
33067;DHT22;19428;49.024;8.366;2023-02-13T06:03:33;1.60;99.90
33067;DHT22;19428;49.024;8.366;2023-02-13T06:05:59;1.50;99.90
33067;DHT22;19428;49.024;8.366;2023-02-13T06:08:25;1.60;99.90
33067;DHT22;19428;49.024;8.366;2023-02-13T06:10:51;1.50;99.90
33067;DHT22;19428;49.024;8.366;2023-02-13T06:13:17;1.50;99.90
33067;DHT22;19428;49.024;8.366;2023-02-13T06:15:43;1.50;99.90
33067;DHT22;19428;49.024;8.366;2023-02-13T06:18:09;1.50;99.90
33067;DHT22;19428;49.024;8.366;2023-02-13T06:20:35;1.50;99.90
33067;DHT22;19428;49.024;8.366;2023-02-13T06:23:01;1.40;99.90
33067;DHT22;19428;49.024;8.366;2023-02-13T06:25:26;1.50;99.90
33067;DHT22;19428;49.024;8.366;2023-02-13T06:27:52;1.50;99.90
33067;DHT22;19428;49.024;8.366;2023-02-13T06:30:18;1.50;99.90
33067;DHT22;19428;49.024;8.366;2023-02-13T06:32:47;1.50;99.90
33067;DHT22;19428;49.024;8.366;2023-02-13T06:35:14;1.40;99.90
33067;DHT22;19428;49.024;8.366;2023-02-13T06:37:41;1.40;99.90
33067;DHT22;19428;49.024;8.366;2023-02-13T06:40:10;1.40;99.90
33067;DHT22;19428;49.024;8.366;2023-02-13T06:42:36;1.40;99.90
33067;DHT22;19428;49.024;8.366;2023-02-13T06:45:02;1.50;99.90
33067;DHT22;19428;49.024;8.366;2023-02-13T06:47:28;1.50;99.90
33067;DHT22;19428;49.024;8.366;2023-02-13T06:49:53;1.50;99.90
33067;DHT22;19428;49.024;8.366;2023-02-13T06:52:19;1.40;99.90
33067;DHT22;19428;49.024;8.366;2023-02-13T06:54:45;1.40;99.90
33067;DHT22;19428;49.024;8.366;2023-02-13T06:57:10;1.40;99.90
33067;DHT22;19428;49.024;8.366;2023-02-13T06:59:36;1.40;99.90
33067;DHT22;19428;49.024;8.366;2023-02-13T07:02:01;1.50;99.90
33067;DHT22;19428;49.024;8.366;2023-02-13T07:04:27;1.50;99.90
33067;DHT22;19428;49.024;8.366;2023-02-13T07:06:56;1.60;99.90
33067;DHT22;19428;49.024;8.366;2023-02-13T07:09:23;1.60;99.90
33067;DHT22;19428;49.024;8.366;2023-02-13T07:11:49;1.60;99.90
33067;DHT22;19428;49.024;8.366;2023-02-13T07:14:15;1.60;99.90
33067;DHT22;19428;49.024;8.366;2023-02-13T07:16:40;1.60;99.90
33067;DHT22;19428;49.024;8.366;2023-02-13T07:19:06;1.70;99.90
33067;DHT22;19428;49.024;8.366;2023-02-13T07:21:31;1.70;99.90
33067;DHT22;19428;49.024;8.366;2023-02-13T07:23:57;1.80;99.90
33067;DHT22;19428;49.024;8.366;2023-02-13T07:26:23;1.70;99.90
33067;DHT22;19428;49.024;8.366;2023-02-13T07:28:48;1.80;99.90
33067;DHT22;19428;49.024;8.366;2023-02-13T07:31:14;1.80;99.90
33067;DHT22;19428;49.024;8.366;2023-02-13T07:33:39;1.90;99.90
33067;DHT22;19428;49.024;8.366;2023-02-13T07:36:05;1.90;99.90
33067;DHT22;19428;49.024;8.366;2023-02-13T07:38:31;1.90;99.90
33067;DHT22;19428;49.024;8.366;2023-02-13T07:40:58;1.70;99.90
33067;DHT22;19428;49.024;8.366;2023-02-13T07:43:24;1.80;99.90
33067;DHT22;19428;49.024;8.366;2023-02-13T07:45:50;1.90;99.90
33067;DHT22;19428;49.024;8.366;2023-02-13T07:48:22;2.00;99.90
33067;DHT22;19428;49.024;8.366;2023-02-13T07:50:48;2.10;99.90
33067;DHT22;19428;49.024;8.366;2023-02-13T07:53:14;2.10;99.90
33067;DHT22;19428;49.024;8.366;2023-02-13T07:55:40;2.10;99.90
33067;DHT22;19428;49.024;8.366;2023-02-13T07:58:06;2.20;99.90
33067;DHT22;19428;49.024;8.366;2023-02-13T08:00:31;2.20;99.90
33067;DHT22;19428;49.024;8.366;2023-02-13T08:03:00;2.20;99.90
33067;DHT22;19428;49.024;8.366;2023-02-13T08:05:27;2.20;99.90
33067;DHT22;19428;49.024;8.366;2023-02-13T08:07:53;2.30;99.90
33067;DHT22;19428;49.024;8.366;2023-02-13T08:10:18;2.40;99.90
33067;DHT22;19428;49.024;8.366;2023-02-13T08:13:03;2.40;99.90
33067;DHT22;19428;49.024;8.366;2023-02-13T08:15:29;2.30;99.90
33067;DHT22;19428;49.024;8.366;2023-02-13T08:17:55;2.30;99.90
33067;DHT22;19428;49.024;8.366;2023-02-13T08:20:20;2.50;99.90
33067;DHT22;19428;49.024;8.366;2023-02-13T08:22:46;2.50;99.90
33067;DHT22;19428;49.024;8.366;2023-02-13T08:25:12;2.50;99.90
33067;DHT22;19428;49.024;8.366;2023-02-13T08:27:38;2.60;99.90
33067;DHT22;19428;49.024;8.366;2023-02-13T08:30:04;2.60;99.90
33067;DHT22;19428;49.024;8.366;2023-02-13T08:32:30;2.60;99.90
33067;DHT22;19428;49.024;8.366;2023-02-13T08:34:56;2.70;99.90
33067;DHT22;19428;49.024;8.366;2023-02-13T08:37:22;2.80;99.90
33067;DHT22;19428;49.024;8.366;2023-02-13T08:39:48;2.90;99.90
33067;DHT22;19428;49.024;8.366;2023-02-13T08:42:13;2.90;99.90
33067;DHT22;19428;49.024;8.366;2023-02-13T08:44:39;2.90;99.90
33067;DHT22;19428;49.024;8.366;2023-02-13T08:47:07;3.00;99.90
33067;DHT22;19428;49.024;8.366;2023-02-13T08:49:32;3.10;99.90
33067;DHT22;19428;49.024;8.366;2023-02-13T08:52:02;3.20;99.90
33067;DHT22;19428;49.024;8.366;2023-02-13T08:54:28;3.10;99.90
33067;DHT22;19428;49.024;8.366;2023-02-13T08:56:54;3.20;99.90
33067;DHT22;19428;49.024;8.366;2023-02-13T08:59:20;3.30;99.90
33067;DHT22;19428;49.024;8.366;2023-02-13T09:01:46;3.40;99.90
33067;DHT22;19428;49.024;8.366;2023-02-13T09:04:12;3.40;99.90
33067;DHT22;19428;49.024;8.366;2023-02-13T09:06:40;3.50;99.90
33067;DHT22;19428;49.024;8.366;2023-02-13T09:09:06;3.60;99.90
33067;DHT22;19428;49.024;8.366;2023-02-13T09:11:32;3.60;99.90
33067;DHT22;19428;49.024;8.366;2023-02-13T09:13:58;3.60;99.90
33067;DHT22;19428;49.024;8.366;2023-02-13T09:16:23;3.60;99.90
33067;DHT22;19428;49.024;8.366;2023-02-13T09:18:50;3.60;99.90
33067;DHT22;19428;49.024;8.366;2023-02-13T09:21:16;3.70;99.90
33067;DHT22;19428;49.024;8.366;2023-02-13T09:23:42;3.70;99.90
33067;DHT22;19428;49.024;8.366;2023-02-13T09:26:10;3.80;99.90
33067;DHT22;19428;49.024;8.366;2023-02-13T09:28:36;3.90;99.90
33067;DHT22;19428;49.024;8.366;2023-02-13T09:31:10;3.90;99.90
33067;DHT22;19428;49.024;8.366;2023-02-13T09:33:36;3.90;99.90
33067;DHT22;19428;49.024;8.366;2023-02-13T09:36:06;4.00;99.90
33067;DHT22;19428;49.024;8.366;2023-02-13T09:38:33;4.10;99.90
33067;DHT22;19428;49.024;8.366;2023-02-13T09:41:04;4.20;99.90
33067;DHT22;19428;49.024;8.366;2023-02-13T09:43:40;4.10;99.90
33067;DHT22;19428;49.024;8.366;2023-02-13T09:46:09;4.20;99.90
33067;DHT22;19428;49.024;8.366;2023-02-13T09:48:38;4.30;99.90
33067;DHT22;19428;49.024;8.366;2023-02-13T09:51:04;4.50;99.90
33067;DHT22;19428;49.024;8.366;2023-02-13T09:53:30;4.80;99.90
33067;DHT22;19428;49.024;8.366;2023-02-13T09:56:05;4.70;99.90
33067;DHT22;19428;49.024;8.366;2023-02-13T09:58:47;4.60;99.90
33067;DHT22;19428;49.024;8.366;2023-02-13T10:01:43;4.80;99.90
33067;DHT22;19428;49.024;8.366;2023-02-13T10:07:16;4.90;99.90
33067;DHT22;19428;49.024;8.366;2023-02-13T10:12:39;5.00;99.90
33067;DHT22;19428;49.024;8.366;2023-02-13T10:15:21;5.00;99.90
33067;DHT22;19428;49.024;8.366;2023-02-13T10:17:58;5.20;99.90
33067;DHT22;19428;49.024;8.366;2023-02-13T10:20:40;5.20;99.90
33067;DHT22;19428;49.024;8.366;2023-02-13T10:26:00;5.20;99.90
33067;DHT22;19428;49.024;8.366;2023-02-13T10:29:06;5.30;99.90
33067;DHT22;19428;49.024;8.366;2023-02-13T10:31:44;5.40;99.90
33067;DHT22;19428;49.024;8.366;2023-02-13T10:34:15;5.40;99.90
33067;DHT22;19428;49.024;8.366;2023-02-13T10:36:44;5.20;99.90
33067;DHT22;19428;49.024;8.366;2023-02-13T10:39:23;5.30;99.90
33067;DHT22;19428;49.024;8.366;2023-02-13T10:47:22;5.80;99.90
33067;DHT22;19428;49.024;8.366;2023-02-13T10:53:03;6.00;99.90
33067;DHT22;19428;49.024;8.366;2023-02-13T11:03:38;6.20;99.90
33067;DHT22;19428;49.024;8.366;2023-02-13T11:06:10;6.40;99.90
33067;DHT22;19428;49.024;8.366;2023-02-13T11:08:43;6.50;99.90
33067;DHT22;19428;49.024;8.366;2023-02-13T11:11:36;6.70;99.90
33067;DHT22;19428;49.024;8.366;2023-02-13T11:14:16;6.60;99.90
33067;DHT22;19428;49.024;8.366;2023-02-13T11:16:57;6.60;99.90
33067;DHT22;19428;49.024;8.366;2023-02-13T11:22:37;6.90;99.90
33067;DHT22;19428;49.024;8.366;2023-02-13T11:25:21;6.90;99.90
33067;DHT22;19428;49.024;8.366;2023-02-13T11:27:49;7.10;99.90
33067;DHT22;19428;49.024;8.366;2023-02-13T11:30:32;7.10;99.90
33067;DHT22;19428;49.024;8.366;2023-02-13T11:33:05;7.10;99.90
33067;DHT22;19428;49.024;8.366;2023-02-13T11:35:35;7.30;99.90
33067;DHT22;19428;49.024;8.366;2023-02-13T11:40:47;7.40;99.90
33067;DHT22;19428;49.024;8.366;2023-02-13T11:43:45;7.80;99.90
33067;DHT22;19428;49.024;8.366;2023-02-13T11:46:23;7.80;99.90
33067;DHT22;19428;49.024;8.366;2023-02-13T11:49:04;7.70;99.90
33067;DHT22;19428;49.024;8.366;2023-02-13T11:51:38;7.80;99.90
33067;DHT22;19428;49.024;8.366;2023-02-13T11:54:06;7.90;99.90
33067;DHT22;19428;49.024;8.366;2023-02-13T11:56:50;7.80;99.90
33067;DHT22;19428;49.024;8.366;2023-02-13T11:59:16;8.20;99.90
33067;DHT22;19428;49.024;8.366;2023-02-13T12:01:43;8.90;99.90
33067;DHT22;19428;49.024;8.366;2023-02-13T12:04:14;8.60;99.90
33067;DHT22;19428;49.024;8.366;2023-02-13T12:09:27;8.40;99.90
33067;DHT22;19428;49.024;8.366;2023-02-13T12:11:56;8.30;99.90
33067;DHT22;19428;49.024;8.366;2023-02-13T12:14:29;8.30;99.90
33067;DHT22;19428;49.024;8.366;2023-02-13T12:17:01;8.40;99.90
33067;DHT22;19428;49.024;8.366;2023-02-13T12:19:41;8.30;99.90
33067;DHT22;19428;49.024;8.366;2023-02-13T12:22:29;8.10;99.90
33067;DHT22;19428;49.024;8.366;2023-02-13T12:28:08;8.00;99.90
33067;DHT22;19428;49.024;8.366;2023-02-13T12:41:17;8.20;99.90
33067;DHT22;19428;49.024;8.366;2023-02-13T12:46:53;8.30;99.90
33067;DHT22;19428;49.024;8.366;2023-02-13T13:03:24;9.80;99.90
33067;DHT22;19428;49.024;8.366;2023-02-13T13:06:03;9.80;99.90
33067;DHT22;19428;49.024;8.366;2023-02-13T13:08:58;9.90;99.90
33067;DHT22;19428;49.024;8.366;2023-02-13T13:22:20;10.80;99.90
33067;DHT22;19428;49.024;8.366;2023-02-13T13:27:45;10.40;99.90
33067;DHT22;19428;49.024;8.366;2023-02-13T13:30:19;10.50;99.90
33067;DHT22;19428;49.024;8.366;2023-02-13T13:32:53;10.80;99.90
33067;DHT22;19428;49.024;8.366;2023-02-13T13:35:21;10.70;99.90
33067;DHT22;19428;49.024;8.366;2023-02-13T13:37:53;10.60;99.90
33067;DHT22;19428;49.024;8.366;2023-02-13T13:40:49;10.70;99.90
33067;DHT22;19428;49.024;8.366;2023-02-13T13:51:22;11.00;99.90
33067;DHT22;19428;49.024;8.366;2023-02-13T13:59:16;11.40;99.90
33067;DHT22;19428;49.024;8.366;2023-02-13T14:01:42;11.10;99.90
33067;DHT22;19428;49.024;8.366;2023-02-13T14:11:54;11.60;99.90
33067;DHT22;19428;49.024;8.366;2023-02-13T14:16:53;12.40;99.90
33067;DHT22;19428;49.024;8.366;2023-02-13T14:21:51;12.40;99.90
33067;DHT22;19428;49.024;8.366;2023-02-13T14:24:18;11.90;99.90
33067;DHT22;19428;49.024;8.366;2023-02-13T14:26:57;12.00;99.90
33067;DHT22;19428;49.024;8.366;2023-02-13T14:29:29;11.80;99.90
33067;DHT22;19428;49.024;8.366;2023-02-13T14:32:01;11.70;99.90
33067;DHT22;19428;49.024;8.366;2023-02-13T14:34:34;11.70;99.90
33067;DHT22;19428;49.024;8.366;2023-02-13T14:39:36;11.40;99.90
33067;DHT22;19428;49.024;8.366;2023-02-13T14:42:04;11.50;99.90
33067;DHT22;19428;49.024;8.366;2023-02-13T14:44:50;11.40;99.90
33067;DHT22;19428;49.024;8.366;2023-02-13T14:47:25;11.00;99.90
33067;DHT22;19428;49.024;8.366;2023-02-13T14:49:53;10.60;99.90
33067;DHT22;19428;49.024;8.366;2023-02-13T14:52:27;10.60;99.90
33067;DHT22;19428;49.024;8.366;2023-02-13T14:55:11;10.70;99.90
33067;DHT22;19428;49.024;8.366;2023-02-13T14:57:46;10.70;99.90
33067;DHT22;19428;49.024;8.366;2023-02-13T15:00:43;10.20;99.90
33067;DHT22;19428;49.024;8.366;2023-02-13T15:06:11;9.80;99.90
33067;DHT22;19428;49.024;8.366;2023-02-13T15:08:45;10.00;99.90
33067;DHT22;19428;49.024;8.366;2023-02-13T15:11:12;10.00;99.90
33067;DHT22;19428;49.024;8.366;2023-02-13T15:14:17;9.70;99.90
33067;DHT22;19428;49.024;8.366;2023-02-13T15:17:13;9.80;99.90
33067;DHT22;19428;49.024;8.366;2023-02-13T15:19:31;10.10;99.90
33067;DHT22;19428;49.024;8.366;2023-02-13T15:22:00;10.20;99.90
33067;DHT22;19428;49.024;8.366;2023-02-13T15:24:29;9.90;99.90
33067;DHT22;19428;49.024;8.366;2023-02-13T15:27:02;9.80;99.90
33067;DHT22;19428;49.024;8.366;2023-02-13T15:29:29;9.80;99.90
33067;DHT22;19428;49.024;8.366;2023-02-13T15:31:56;9.80;99.90
33067;DHT22;19428;49.024;8.366;2023-02-13T15:36:54;9.70;99.90
33067;DHT22;19428;49.024;8.366;2023-02-13T15:39:28;9.60;99.90
33067;DHT22;19428;49.024;8.366;2023-02-13T15:41:57;9.70;99.90
33067;DHT22;19428;49.024;8.366;2023-02-13T15:44:31;9.70;99.90
33067;DHT22;19428;49.024;8.366;2023-02-13T15:47:07;9.60;99.90
33067;DHT22;19428;49.024;8.366;2023-02-13T15:49:44;9.50;99.90
33067;DHT22;19428;49.024;8.366;2023-02-13T15:52:28;9.40;99.90
33067;DHT22;19428;49.024;8.366;2023-02-13T15:54:55;9.40;99.90
33067;DHT22;19428;49.024;8.366;2023-02-13T15:57:21;9.40;99.90
33067;DHT22;19428;49.024;8.366;2023-02-13T15:59:48;9.30;99.90
33067;DHT22;19428;49.024;8.366;2023-02-13T16:02:20;9.20;99.90
33067;DHT22;19428;49.024;8.366;2023-02-13T16:04:50;9.10;99.90
33067;DHT22;19428;49.024;8.366;2023-02-13T16:07:16;9.00;99.90
33067;DHT22;19428;49.024;8.366;2023-02-13T16:09:42;8.80;99.90
33067;DHT22;19428;49.024;8.366;2023-02-13T16:12:20;8.90;99.90
33067;DHT22;19428;49.024;8.366;2023-02-13T16:14:51;8.80;99.90
33067;DHT22;19428;49.024;8.366;2023-02-13T16:17:36;8.70;99.90
33067;DHT22;19428;49.024;8.366;2023-02-13T16:23:02;8.50;99.90
33067;DHT22;19428;49.024;8.366;2023-02-13T16:25:37;8.40;99.90
33067;DHT22;19428;49.024;8.366;2023-02-13T16:30:41;8.10;99.90
33067;DHT22;19428;49.024;8.366;2023-02-13T16:33:25;8.00;99.90
33067;DHT22;19428;49.024;8.366;2023-02-13T16:35:53;7.90;99.90
33067;DHT22;19428;49.024;8.366;2023-02-13T16:38:27;7.80;99.90
33067;DHT22;19428;49.024;8.366;2023-02-13T16:40:53;7.70;99.90
33067;DHT22;19428;49.024;8.366;2023-02-13T16:46:37;7.60;99.90
33067;DHT22;19428;49.024;8.366;2023-02-13T16:54:20;7.40;99.90
33067;DHT22;19428;49.024;8.366;2023-02-13T16:56:49;7.30;99.90
33067;DHT22;19428;49.024;8.366;2023-02-13T16:59:25;7.20;99.90
33067;DHT22;19428;49.024;8.366;2023-02-13T17:10:06;7.10;99.90
33067;DHT22;19428;49.024;8.366;2023-02-13T17:12:36;7.00;99.90
33067;DHT22;19428;49.024;8.366;2023-02-13T17:15:03;6.90;99.90
33067;DHT22;19428;49.024;8.366;2023-02-13T17:17:30;6.90;99.90
33067;DHT22;19428;49.024;8.366;2023-02-13T17:19:57;6.80;99.90
33067;DHT22;19428;49.024;8.366;2023-02-13T17:22:27;6.70;99.90
33067;DHT22;19428;49.024;8.366;2023-02-13T17:24:56;6.70;99.90
33067;DHT22;19428;49.024;8.366;2023-02-13T17:27:22;6.50;99.90
33067;DHT22;19428;49.024;8.366;2023-02-13T17:29:48;6.30;99.90
33067;DHT22;19428;49.024;8.366;2023-02-13T17:32:24;6.30;99.90
33067;DHT22;19428;49.024;8.366;2023-02-13T17:34:51;6.30;99.90
33067;DHT22;19428;49.024;8.366;2023-02-13T17:37:19;6.10;99.90
33067;DHT22;19428;49.024;8.366;2023-02-13T17:39:45;5.90;99.90
33067;DHT22;19428;49.024;8.366;2023-02-13T17:42:37;5.70;99.90
33067;DHT22;19428;49.024;8.366;2023-02-13T17:45:03;5.60;99.90
33067;DHT22;19428;49.024;8.366;2023-02-13T17:47:29;5.60;99.90
33067;DHT22;19428;49.024;8.366;2023-02-13T17:49:55;5.50;99.90
33067;DHT22;19428;49.024;8.366;2023-02-13T17:52:24;5.50;99.90
33067;DHT22;19428;49.024;8.366;2023-02-13T17:54:50;5.40;99.90
33067;DHT22;19428;49.024;8.366;2023-02-13T17:57:17;5.50;99.90
33067;DHT22;19428;49.024;8.366;2023-02-13T17:59:43;5.50;99.90
33067;DHT22;19428;49.024;8.366;2023-02-13T18:02:12;5.60;99.90
33067;DHT22;19428;49.024;8.366;2023-02-13T18:04:37;5.40;99.90
33067;DHT22;19428;49.024;8.366;2023-02-13T18:07:03;5.40;99.90
33067;DHT22;19428;49.024;8.366;2023-02-13T18:09:28;5.20;99.90
33067;DHT22;19428;49.024;8.366;2023-02-13T18:11:54;5.00;99.90
33067;DHT22;19428;49.024;8.366;2023-02-13T18:14:20;4.90;99.90
33067;DHT22;19428;49.024;8.366;2023-02-13T18:16:45;4.80;99.90
33067;DHT22;19428;49.024;8.366;2023-02-13T18:19:11;4.90;99.90
33067;DHT22;19428;49.024;8.366;2023-02-13T18:21:38;4.80;99.90
33067;DHT22;19428;49.024;8.366;2023-02-13T18:24:04;4.60;99.90
33067;DHT22;19428;49.024;8.366;2023-02-13T18:26:30;4.50;99.90
33067;DHT22;19428;49.024;8.366;2023-02-13T18:28:55;4.50;99.90
33067;DHT22;19428;49.024;8.366;2023-02-13T18:31:21;4.50;99.90
33067;DHT22;19428;49.024;8.366;2023-02-13T18:33:46;4.60;99.90
33067;DHT22;19428;49.024;8.366;2023-02-13T18:36:12;4.40;99.90
33067;DHT22;19428;49.024;8.366;2023-02-13T18:38:38;4.40;99.90
33067;DHT22;19428;49.024;8.366;2023-02-13T18:41:03;4.60;99.90
33067;DHT22;19428;49.024;8.366;2023-02-13T18:43:29;4.40;99.90
33067;DHT22;19428;49.024;8.366;2023-02-13T18:45:55;4.30;99.90
33067;DHT22;19428;49.024;8.366;2023-02-13T18:48:21;4.10;99.90
33067;DHT22;19428;49.024;8.366;2023-02-13T18:50:47;3.90;99.90
33067;DHT22;19428;49.024;8.366;2023-02-13T18:53:13;3.80;99.90
33067;DHT22;19428;49.024;8.366;2023-02-13T18:55:39;3.70;99.90